createdAt,value
2022-08-14T00:01:24.066Z,99.90
2022-08-14T00:03:53.331Z,99.90
2022-08-14T00:06:27.807Z,99.90
2022-08-14T00:08:59.001Z,99.90
2022-08-14T00:11:28.880Z,99.90
2022-08-14T00:14:01.974Z,99.90
2022-08-14T00:16:41.133Z,99.90
2022-08-14T00:19:19.519Z,99.90
2022-08-14T00:21:50.894Z,99.90
2022-08-14T00:24:28.618Z,99.90
2022-08-14T00:27:02.297Z,99.90
2022-08-14T00:29:33.042Z,99.90
2022-08-14T00:32:56.422Z,99.90
2022-08-14T00:34:53.824Z,99.90
2022-08-14T00:37:20.939Z,99.90
2022-08-14T00:39:48.450Z,99.90
2022-08-14T00:42:52.558Z,99.90
2022-08-14T00:45:09.944Z,99.90
2022-08-14T00:47:43.252Z,99.90
2022-08-14T00:50:17.933Z,99.90
2022-08-14T00:52:50.969Z,99.90
2022-08-14T00:55:19.810Z,99.90
2022-08-14T00:58:06.846Z,99.90
2022-08-14T01:00:42.949Z,99.90
2022-08-14T01:03:20.122Z,99.90
2022-08-14T01:05:51.684Z,99.90
2022-08-14T01:08:51.475Z,99.90
2022-08-14T01:11:19.402Z,99.90
2022-08-14T01:13:50.762Z,99.90
2022-08-14T01:16:28.133Z,99.90
2022-08-14T01:19:16.861Z,99.90
2022-08-14T01:21:47.360Z,99.90
2022-08-14T01:24:30.243Z,99.90
2022-08-14T01:27:00.176Z,99.90
2022-08-14T01:29:58.698Z,99.90
2022-08-14T01:32:23.082Z,99.90
2022-08-14T01:35:18.200Z,99.90
2022-08-14T01:37:46.925Z,99.90
2022-08-14T01:40:25.406Z,99.90
2022-08-14T01:42:59.537Z,99.90
2022-08-14T01:45:26.404Z,99.90
2022-08-14T01:48:03.228Z,99.90
2022-08-14T01:50:30.720Z,99.90
2022-08-14T01:53:01.318Z,99.90
2022-08-14T01:55:31.634Z,99.90
2022-08-14T01:58:01.704Z,99.90
2022-08-14T02:00:47.856Z,99.90
2022-08-14T02:03:16.102Z,99.90
2022-08-14T02:05:43.381Z,99.90
2022-08-14T02:08:10.690Z,99.90
2022-08-14T02:10:46.765Z,99.90
2022-08-14T02:13:15.974Z,99.90
2022-08-14T02:15:43.995Z,99.90
2022-08-14T02:18:11.874Z,99.90
2022-08-14T02:20:42.088Z,99.90
2022-08-14T02:23:09.178Z,99.90
2022-08-14T02:25:36.614Z,99.90
2022-08-14T02:28:26.015Z,99.90
2022-08-14T02:30:52.623Z,99.90
2022-08-14T02:33:21.493Z,99.90
2022-08-14T02:35:52.964Z,99.90
2022-08-14T02:38:29.688Z,99.90
2022-08-14T02:41:01.015Z,99.90
2022-08-14T02:43:36.650Z,99.90
2022-08-14T02:46:05.710Z,99.90
2022-08-14T02:49:01.501Z,99.90
2022-08-14T02:51:20.212Z,99.90
2022-08-14T02:53:47.123Z,99.90
2022-08-14T02:56:30.756Z,99.90
2022-08-14T02:59:05.540Z,99.90
2022-08-14T03:01:43.956Z,99.90
2022-08-14T03:04:20.670Z,99.90
2022-08-14T03:07:06.779Z,99.90
2022-08-14T03:09:42.010Z,99.90
2022-08-14T03:12:31.566Z,99.90
2022-08-14T03:15:03.678Z,99.90
2022-08-14T03:17:56.199Z,99.90
2022-08-14T03:20:19.596Z,99.90
2022-08-14T03:22:50.727Z,99.90
2022-08-14T03:25:17.848Z,99.90
2022-08-14T03:27:48.320Z,99.90
2022-08-14T03:30:39.872Z,99.90
2022-08-14T03:33:11.123Z,99.90
2022-08-14T03:36:07.674Z,99.90
2022-08-14T03:39:13.671Z,99.90
2022-08-14T03:41:16.811Z,99.90
2022-08-14T03:43:57.105Z,99.90
2022-08-14T03:46:38.855Z,99.90
2022-08-14T03:49:24.070Z,99.90
2022-08-14T03:51:55.109Z,99.90
2022-08-14T03:54:24.495Z,99.90
2022-08-14T03:56:51.249Z,99.90
2022-08-14T03:59:19.835Z,99.90
2022-08-14T04:01:58.054Z,99.90
2022-08-14T04:04:32.003Z,99.90
2022-08-14T04:07:00.698Z,99.90
2022-08-14T04:09:27.857Z,99.90
2022-08-14T04:11:56.183Z,99.90
2022-08-14T04:14:24.844Z,99.90
2022-08-14T04:16:51.519Z,99.90
2022-08-14T04:19:23.840Z,99.90
2022-08-14T04:22:02.314Z,99.90
2022-08-14T04:24:38.234Z,99.90
2022-08-14T04:27:11.421Z,99.90
2022-08-14T04:29:39.748Z,99.90
2022-08-14T04:33:00.980Z,99.90
2022-08-14T04:34:57.491Z,99.90
2022-08-14T04:37:45.178Z,99.90
2022-08-14T04:40:31.678Z,99.90
2022-08-14T04:43:17.754Z,99.90
2022-08-14T04:45:44.789Z,99.90
2022-08-14T04:48:13.584Z,99.90
2022-08-14T04:51:00.842Z,99.90
2022-08-14T04:53:35.224Z,99.90
2022-08-14T04:56:06.189Z,99.90
2022-08-14T04:58:38.983Z,99.90
2022-08-14T05:01:12.680Z,99.90
2022-08-14T05:03:49.584Z,99.90
2022-08-14T05:06:37.637Z,99.90
2022-08-14T05:09:04.966Z,99.90
2022-08-14T05:11:36.683Z,99.90
2022-08-14T05:14:42.701Z,99.90
2022-08-14T05:16:52.077Z,99.90
2022-08-14T05:19:27.373Z,99.90
2022-08-14T05:22:15.965Z,99.90
2022-08-14T05:24:45.167Z,99.90
2022-08-14T05:27:11.879Z,99.90
2022-08-14T05:29:38.510Z,99.90
2022-08-14T05:32:07.463Z,99.90
2022-08-14T05:34:34.333Z,99.90
2022-08-14T05:37:03.004Z,99.90
2022-08-14T05:39:31.074Z,99.90
2022-08-14T05:41:58.892Z,99.90
2022-08-14T05:44:30.310Z,99.90
2022-08-14T05:46:58.293Z,99.90
2022-08-14T05:49:32.685Z,99.90
2022-08-14T05:52:01.696Z,99.90
2022-08-14T05:54:30.672Z,99.90
2022-08-14T05:57:05.659Z,99.90
2022-08-14T05:59:38.578Z,99.90
2022-08-14T06:02:07.328Z,99.90
2022-08-14T06:04:34.044Z,99.90
2022-08-14T06:07:00.700Z,99.90
2022-08-14T06:09:28.636Z,99.90
2022-08-14T06:12:02.287Z,99.90
2022-08-14T06:14:29.697Z,99.90
2022-08-14T06:16:56.655Z,99.90
2022-08-14T06:19:23.615Z,99.90
2022-08-14T06:21:55.862Z,99.90
2022-08-14T06:24:26.045Z,99.90
2022-08-14T06:26:56.753Z,99.90
2022-08-14T06:29:32.066Z,99.90
2022-08-14T06:32:37.808Z,99.90
2022-08-14T06:35:03.797Z,99.90
2022-08-14T06:37:49.959Z,99.90
2022-08-14T06:40:26.804Z,99.90
2022-08-14T06:43:00.384Z,99.90
2022-08-14T06:45:31.733Z,99.90
2022-08-14T06:47:59.153Z,99.90
2022-08-14T06:50:28.708Z,99.90
2022-08-14T06:52:58.586Z,99.90
2022-08-14T06:55:27.746Z,99.90
2022-08-14T06:57:55.205Z,99.90
2022-08-14T07:00:31.137Z,99.90
2022-08-14T07:03:36.925Z,99.90
2022-08-14T07:06:11.710Z,99.90
2022-08-14T07:08:48.176Z,99.90
2022-08-14T07:11:17.991Z,99.90
2022-08-14T07:13:46.257Z,99.90
2022-08-14T07:16:15.467Z,99.90
2022-08-14T07:18:45.788Z,99.90
2022-08-14T07:21:17.767Z,99.90
2022-08-14T07:23:44.450Z,99.90
2022-08-14T07:26:13.046Z,99.90
2022-08-14T07:28:43.612Z,99.90
2022-08-14T07:31:12.215Z,99.90
2022-08-14T07:33:46.679Z,99.90
2022-08-14T07:36:27.435Z,99.90
2022-08-14T07:39:03.051Z,99.90
2022-08-14T07:41:33.977Z,99.90
2022-08-14T07:44:32.099Z,99.90
2022-08-14T07:46:49.815Z,99.90
2022-08-14T07:49:18.157Z,99.90
2022-08-14T07:51:45.570Z,99.90
2022-08-14T07:54:23.689Z,99.90
2022-08-14T07:57:11.837Z,99.90
2022-08-14T07:59:44.091Z,99.90
2022-08-14T08:02:18.077Z,99.90
2022-08-14T08:04:54.101Z,99.90
2022-08-14T08:07:29.863Z,99.90
2022-08-14T08:09:59.675Z,99.90
2022-08-14T08:12:31.156Z,99.90
2022-08-14T08:15:06.028Z,99.90
2022-08-14T08:17:53.202Z,99.90
2022-08-14T08:20:27.513Z,99.90
2022-08-14T08:23:00.379Z,99.90
2022-08-14T08:25:31.007Z,99.90
2022-08-14T08:28:19.733Z,99.90
2022-08-14T08:30:52.503Z,99.90
2022-08-14T08:33:20.963Z,99.90
2022-08-14T08:35:51.009Z,99.90
2022-08-14T08:39:17.066Z,99.90
2022-08-14T08:41:12.939Z,99.90
2022-08-14T08:43:46.732Z,99.90
2022-08-14T08:46:23.578Z,99.90
2022-08-14T08:51:31.148Z,99.90
2022-08-14T08:54:03.261Z,99.90
2022-08-14T08:56:39.665Z,99.90
2022-08-14T08:59:42.531Z,99.90
2022-08-14T09:02:10.334Z,99.90
2022-08-14T09:04:45.614Z,99.90
2022-08-14T09:07:31.204Z,99.90
2022-08-14T09:10:00.506Z,99.90
2022-08-14T09:12:31.795Z,99.90
2022-08-14T09:15:00.684Z,99.90
2022-08-14T09:17:28.351Z,99.90
2022-08-14T09:19:55.821Z,99.90
2022-08-14T09:22:34.811Z,99.90
2022-08-14T09:25:10.688Z,99.90
2022-08-14T09:27:39.607Z,99.90
2022-08-14T09:30:30.856Z,99.90
2022-08-14T09:33:04.828Z,99.90
2022-08-14T09:35:57.780Z,99.90
2022-08-14T09:38:36.500Z,99.90
2022-08-14T09:42:21.918Z,99.90
2022-08-14T09:44:54.297Z,99.90
2022-08-14T09:47:21.194Z,99.90
2022-08-14T09:49:53.191Z,99.90
2022-08-14T09:52:33.369Z,99.90
2022-08-14T09:55:01.935Z,99.90
2022-08-14T09:57:31.358Z,99.90
2022-08-14T10:00:09.938Z,99.90
2022-08-14T10:03:05.066Z,99.90
2022-08-14T10:05:39.331Z,99.90
2022-08-14T10:08:25.262Z,99.90
2022-08-14T10:10:57.223Z,99.90
2022-08-14T10:13:42.970Z,99.90
2022-08-14T10:16:25.606Z,99.90
2022-08-14T10:19:04.815Z,99.90
2022-08-14T10:21:38.846Z,99.90
2022-08-14T10:24:36.259Z,99.90
2022-08-14T10:27:03.863Z,99.90
2022-08-14T10:29:39.332Z,99.90
2022-08-14T10:32:17.798Z,99.90
2022-08-14T10:34:46.501Z,99.90
2022-08-14T10:37:20.104Z,99.90
2022-08-14T10:40:10.215Z,99.90
2022-08-14T10:42:40.210Z,99.90
2022-08-14T10:45:35.535Z,99.90
2022-08-14T10:48:30.791Z,99.90
2022-08-14T10:51:03.616Z,99.90
2022-08-14T10:53:39.235Z,99.90
2022-08-14T10:56:21.981Z,99.90
2022-08-14T10:59:03.867Z,99.90
2022-08-14T11:01:32.642Z,99.90
2022-08-14T11:04:19.431Z,99.90
2022-08-14T11:06:56.092Z,99.90
2022-08-14T11:09:23.281Z,99.90
2022-08-14T11:12:34.273Z,99.90
2022-08-14T11:14:51.480Z,99.90
2022-08-14T11:17:31.897Z,99.90
2022-08-14T11:20:00.992Z,99.90
2022-08-14T11:22:52.422Z,99.90
2022-08-14T11:25:20.289Z,99.90
2022-08-14T11:27:48.987Z,99.90
2022-08-14T11:30:50.010Z,99.90
2022-08-14T11:33:09.149Z,99.90
2022-08-14T11:35:47.473Z,99.90
2022-08-14T11:38:17.171Z,99.90
2022-08-14T11:40:47.280Z,99.90
2022-08-14T11:43:15.224Z,99.90
2022-08-14T11:45:48.492Z,99.90
2022-08-14T11:49:03.520Z,99.90
2022-08-14T11:51:24.529Z,99.90
2022-08-14T11:54:02.938Z,99.90
2022-08-14T11:56:39.627Z,99.90
2022-08-14T11:59:10.256Z,99.90
2022-08-14T12:01:41.154Z,99.90
2022-08-14T12:04:32.622Z,99.90
2022-08-14T12:07:01.097Z,99.90
2022-08-14T12:09:38.739Z,99.90
2022-08-14T12:12:16.192Z,99.90
2022-08-14T12:15:01.119Z,99.90
2022-08-14T12:17:31.584Z,99.90
2022-08-14T12:20:15.348Z,99.90
2022-08-14T12:22:56.808Z,99.90
2022-08-14T12:25:24.723Z,99.90
2022-08-14T12:27:54.584Z,99.90
2022-08-14T12:30:39.387Z,99.90
2022-08-14T12:33:33.293Z,99.90
2022-08-14T12:36:05.482Z,99.90
2022-08-14T12:38:43.498Z,99.90
2022-08-14T12:41:21.231Z,99.90
2022-08-14T12:43:53.475Z,99.90
2022-08-14T12:46:50.836Z,99.90
2022-08-14T12:49:18.758Z,99.90
2022-08-14T12:51:57.914Z,99.90
2022-08-14T12:54:27.977Z,99.90
2022-08-14T12:57:20.187Z,99.90
2022-08-14T12:59:49.548Z,99.90
2022-08-14T13:02:26.227Z,99.90
2022-08-14T13:04:56.574Z,99.90
2022-08-14T13:07:26.597Z,99.90
2022-08-14T13:09:59.024Z,99.90
2022-08-14T13:12:32.289Z,99.90
2022-08-14T13:15:08.966Z,99.90
2022-08-14T13:17:44.737Z,99.90
2022-08-14T13:20:23.443Z,99.90
2022-08-14T13:22:53.362Z,99.90
2022-08-14T13:25:24.415Z,99.90
2022-08-14T13:27:54.945Z,99.90
2022-08-14T13:30:24.792Z,99.90
2022-08-14T13:32:53.995Z,99.90
2022-08-14T13:35:22.642Z,99.90
2022-08-14T13:37:52.497Z,99.90
2022-08-14T13:40:26.567Z,99.90
2022-08-14T13:42:56.740Z,99.90
2022-08-14T13:45:33.616Z,99.90
2022-08-14T13:48:27.196Z,99.90
2022-08-14T13:51:03.435Z,99.90
2022-08-14T13:53:34.813Z,99.90
2022-08-14T13:56:05.920Z,99.90
2022-08-14T13:58:35.553Z,99.90
2022-08-14T14:01:04.450Z,99.90
2022-08-14T14:03:35.197Z,99.90
2022-08-14T14:06:03.541Z,99.90
2022-08-14T14:08:47.563Z,99.90
2022-08-14T14:11:16.936Z,99.90
2022-08-14T14:13:48.244Z,99.90
2022-08-14T14:16:26.380Z,99.90
2022-08-14T14:19:06.089Z,99.90
2022-08-14T14:21:34.701Z,99.90
2022-08-14T14:24:01.782Z,99.90
2022-08-14T14:26:30.124Z,99.90
2022-08-14T14:29:01.584Z,99.90
2022-08-14T14:31:31.190Z,99.90
2022-08-14T14:34:07.435Z,99.90
2022-08-14T14:36:44.569Z,99.90
2022-08-14T14:39:21.264Z,99.90
2022-08-14T14:41:55.961Z,99.90
2022-08-14T14:44:30.370Z,99.90
2022-08-14T14:46:58.290Z,99.90
2022-08-14T14:49:41.965Z,99.90
2022-08-14T14:52:23.517Z,99.90
2022-08-14T14:54:57.639Z,99.90
2022-08-14T14:57:35.796Z,99.90
2022-08-14T15:00:08.825Z,99.90
2022-08-14T15:02:42.507Z,99.80
2022-08-14T15:05:10.463Z,99.70
2022-08-14T15:07:39.900Z,99.50
2022-08-14T15:10:27.785Z,99.50
2022-08-14T15:13:04.240Z,99.70
2022-08-14T15:15:37.474Z,99.80
2022-08-14T15:18:36.149Z,99.90
2022-08-14T15:20:57.345Z,99.50
2022-08-14T15:23:25.268Z,99.00
2022-08-14T15:25:59.763Z,98.70
2022-08-14T15:28:29.518Z,98.30
2022-08-14T15:31:05.741Z,98.00
2022-08-14T15:34:33.224Z,97.90
2022-08-14T15:36:42.277Z,98.10
2022-08-14T15:39:09.269Z,98.30
2022-08-14T15:41:41.423Z,98.40
2022-08-14T15:44:19.063Z,98.60
2022-08-14T15:46:52.538Z,98.70
2022-08-14T15:49:19.668Z,98.80
2022-08-14T15:51:46.410Z,98.80
2022-08-14T15:54:13.173Z,98.90
2022-08-14T15:56:43.705Z,99.00
2022-08-14T15:59:13.333Z,98.90
2022-08-14T16:01:54.273Z,98.60
2022-08-14T16:04:23.950Z,98.10
2022-08-14T16:06:54.634Z,97.80
2022-08-14T16:09:22.769Z,97.70
2022-08-14T16:11:53.530Z,97.40
2022-08-14T16:14:21.789Z,97.30
2022-08-14T16:16:59.934Z,96.80
2022-08-14T16:19:31.015Z,96.10
2022-08-14T16:22:56.993Z,95.40
2022-08-14T16:25:02.414Z,95.30
2022-08-14T16:27:39.394Z,94.90
2022-08-14T16:30:24.898Z,94.60
2022-08-14T16:32:56.614Z,94.40
2022-08-14T16:35:42.671Z,93.90
2022-08-14T16:38:35.747Z,93.60
2022-08-14T16:41:22.254Z,93.80
2022-08-14T16:44:02.162Z,93.60
2022-08-14T16:46:34.811Z,93.20
2022-08-14T16:49:05.481Z,93.10
2022-08-14T16:51:38.639Z,93.10
2022-08-14T16:54:33.722Z,93.00
2022-08-14T16:57:12.028Z,92.40
2022-08-14T16:59:52.884Z,92.00
2022-08-14T17:02:39.086Z,91.70
2022-08-14T17:05:21.224Z,91.30
2022-08-14T17:08:42.781Z,91.10
2022-08-14T17:11:12.549Z,90.80
2022-08-14T17:13:57.727Z,90.40
2022-08-14T17:16:37.020Z,90.10
2022-08-14T17:19:09.774Z,89.80
2022-08-14T17:21:41.552Z,89.70
2022-08-14T17:24:56.883Z,89.40
2022-08-14T17:27:00.044Z,89.00
2022-08-14T17:29:44.780Z,89.10
2022-08-14T17:32:29.318Z,89.10
2022-08-14T17:35:12.050Z,90.00
2022-08-14T17:37:46.103Z,90.20
2022-08-14T17:40:15.775Z,90.10
2022-08-14T17:42:51.767Z,90.00
2022-08-14T17:45:29.233Z,90.00
2022-08-14T17:48:10.090Z,90.00
2022-08-14T17:50:59.927Z,90.10
2022-08-14T17:53:28.030Z,90.30
2022-08-14T17:56:03.389Z,90.70
2022-08-14T17:58:38.718Z,91.20
2022-08-14T18:01:13.637Z,91.70
2022-08-14T18:03:50.098Z,92.10
2022-08-14T18:06:39.639Z,92.40
2022-08-14T18:09:25.347Z,92.70
2022-08-14T18:11:59.130Z,93.00
2022-08-14T18:14:32.583Z,93.20
2022-08-14T18:17:01.331Z,93.50
2022-08-14T18:19:30.200Z,93.60
2022-08-14T18:21:59.204Z,93.80
2022-08-14T18:24:29.815Z,93.90
2022-08-14T18:27:08.898Z,94.10
2022-08-14T18:29:43.678Z,94.20
2022-08-14T18:32:32.203Z,94.40
2022-08-14T18:35:11.403Z,94.50
2022-08-14T18:37:42.059Z,94.80
2022-08-14T18:40:22.941Z,95.00
2022-08-14T18:43:03.494Z,95.20
2022-08-14T18:45:33.217Z,95.40
2022-08-14T18:48:18.707Z,95.60
2022-08-14T18:50:54.680Z,95.80
2022-08-14T18:53:24.543Z,96.00
2022-08-14T18:56:02.089Z,96.10
2022-08-14T18:58:58.676Z,96.30
2022-08-14T19:01:29.766Z,96.40
2022-08-14T19:03:59.720Z,96.40
2022-08-14T19:06:39.133Z,96.50
2022-08-14T19:09:06.187Z,96.60
2022-08-14T19:11:34.214Z,96.70
2022-08-14T19:14:05.191Z,96.70
2022-08-14T19:16:37.507Z,97.10
2022-08-14T19:19:11.601Z,96.80
2022-08-14T19:21:43.338Z,96.90
2022-08-14T19:24:44.031Z,97.00
2022-08-14T19:27:19.433Z,97.00
2022-08-14T19:29:51.392Z,97.10
2022-08-14T19:32:40.241Z,97.20
2022-08-14T19:35:49.065Z,97.20
2022-08-14T19:38:46.723Z,97.30
2022-08-14T19:41:16.384Z,97.40
2022-08-14T19:43:55.323Z,97.50
2022-08-14T19:46:39.300Z,97.60
2022-08-14T19:49:14.070Z,97.70
2022-08-14T19:51:49.400Z,97.70
2022-08-14T19:54:16.484Z,97.70
2022-08-14T19:56:45.650Z,97.80
2022-08-14T19:59:18.076Z,97.80
2022-08-14T20:01:49.817Z,97.80
2022-08-14T20:04:45.134Z,97.90
2022-08-14T20:07:09.350Z,98.00
2022-08-14T20:11:08.125Z,98.10
2022-08-14T20:12:36.462Z,98.10
2022-08-14T20:15:21.115Z,98.20
2022-08-14T20:17:52.538Z,98.20
2022-08-14T20:20:31.827Z,98.20
2022-08-14T20:23:11.897Z,98.30
2022-08-14T20:25:56.020Z,98.30
2022-08-14T20:28:32.123Z,98.40
2022-08-14T20:31:25.308Z,98.40
2022-08-14T20:34:18.710Z,98.50
2022-08-14T20:37:10.152Z,98.40
2022-08-14T20:39:45.232Z,98.40
2022-08-14T20:42:43.657Z,98.50
2022-08-14T20:45:23.616Z,98.60
2022-08-14T20:47:58.298Z,98.70
2022-08-14T20:50:28.623Z,98.70
2022-08-14T20:53:05.742Z,98.70
2022-08-14T20:55:41.689Z,98.70
2022-08-14T20:58:41.754Z,98.70
2022-08-14T21:01:19.725Z,98.80
2022-08-14T21:03:58.202Z,98.80
2022-08-14T21:07:23.574Z,99.00
2022-08-14T21:10:05.304Z,99.10
2022-08-14T21:12:34.697Z,99.10
2022-08-14T21:15:00.613Z,99.10
2022-08-14T21:17:27.575Z,99.20
2022-08-14T21:19:54.507Z,99.30
2022-08-14T21:22:21.328Z,99.40
2022-08-14T21:24:48.432Z,99.40
2022-08-14T21:27:22.579Z,99.40
2022-08-14T21:29:56.038Z,99.60
2022-08-14T21:32:37.514Z,99.70
2022-08-14T21:35:18.671Z,99.80
2022-08-14T21:37:47.724Z,99.90
2022-08-14T21:40:40.752Z,99.90
2022-08-14T21:43:05.003Z,99.90
2022-08-14T21:45:35.336Z,99.90
2022-08-14T21:48:10.515Z,99.90
2022-08-14T21:51:01.226Z,99.90
2022-08-14T21:53:31.292Z,99.90
2022-08-14T21:55:58.271Z,99.90
2022-08-14T21:58:54.556Z,99.90
2022-08-14T22:01:15.956Z,99.90
2022-08-14T22:03:44.973Z,99.90
2022-08-14T22:06:19.561Z,99.90
2022-08-14T22:08:46.934Z,99.90
2022-08-14T22:11:22.823Z,99.90
2022-08-14T22:13:51.527Z,99.90
2022-08-14T22:16:58.703Z,99.90
2022-08-14T22:19:13.408Z,99.90
2022-08-14T22:21:44.093Z,99.90
2022-08-14T22:24:38.069Z,99.90
2022-08-14T22:27:04.174Z,99.90
2022-08-14T22:29:34.339Z,99.90
2022-08-14T22:32:01.518Z,99.90
2022-08-14T22:34:33.788Z,99.90
2022-08-14T22:37:01.491Z,99.90
2022-08-14T22:40:17.748Z,99.90
2022-08-14T22:42:21.512Z,99.90
2022-08-14T22:44:51.096Z,99.90
2022-08-14T22:47:19.233Z,99.90
2022-08-14T22:50:31.115Z,99.90
2022-08-14T22:52:40.540Z,99.90
2022-08-14T22:55:16.527Z,99.90
2022-08-14T22:57:43.795Z,99.90
2022-08-14T23:00:16.411Z,99.90
2022-08-14T23:02:44.778Z,99.90
2022-08-14T23:05:13.027Z,99.90
2022-08-14T23:08:56.659Z,99.90
2022-08-14T23:10:32.018Z,99.90
2022-08-14T23:13:01.275Z,99.90
2022-08-14T23:15:29.900Z,99.90
2022-08-14T23:17:57.215Z,99.90
2022-08-14T23:20:29.411Z,99.90
2022-08-14T23:22:57.559Z,99.90
2022-08-14T23:25:56.749Z,99.90
2022-08-14T23:28:34.788Z,99.90
2022-08-14T23:31:09.289Z,99.90
2022-08-14T23:33:45.650Z,99.90
2022-08-14T23:36:31.719Z,99.90
2022-08-14T23:39:10.273Z,99.90
2022-08-14T23:41:46.314Z,99.90
2022-08-14T23:44:21.540Z,99.90
2022-08-14T23:46:49.464Z,99.90
2022-08-14T23:49:20.490Z,99.90
2022-08-14T23:52:49.630Z,99.90
2022-08-14T23:54:48.869Z,99.90
2022-08-14T23:57:19.245Z,99.90
2022-08-14T23:59:54.696Z,99.90
